createdAt,value
2019-04-04T00:00:09.595Z,15.37
2019-04-04T00:02:37.955Z,15.20
2019-04-04T00:05:06.406Z,13.40
2019-04-04T00:07:34.404Z,16.93
2019-04-04T00:10:04.136Z,16.70
2019-04-04T00:12:32.168Z,16.20
2019-04-04T00:15:01.293Z,16.17
2019-04-04T00:17:29.162Z,14.40
2019-04-04T00:19:57.147Z,16.80
2019-04-04T00:22:25.188Z,13.43
2019-04-04T00:24:53.559Z,12.83
2019-04-04T00:27:21.506Z,13.27
2019-04-04T00:29:49.569Z,15.10
2019-04-04T00:32:20.627Z,14.23
2019-04-04T00:34:47.299Z,15.80
2019-04-04T00:37:15.124Z,16.50
2019-04-04T00:39:43.078Z,19.20
2019-04-04T00:42:10.923Z,16.90
2019-04-04T00:44:38.914Z,17.30
2019-04-04T00:47:06.872Z,18.80
2019-04-04T00:49:36.226Z,14.90
2019-04-04T00:52:04.332Z,19.10
2019-04-04T00:54:32.375Z,16.00
2019-04-04T00:57:00.350Z,19.83
2019-04-04T00:59:28.149Z,16.07
2019-04-04T01:01:56.985Z,19.97
2019-04-04T01:04:25.776Z,19.27
2019-04-04T01:06:54.567Z,17.80
2019-04-04T01:09:22.393Z,18.70
2019-04-04T01:11:51.240Z,17.20
2019-04-04T01:14:21.505Z,17.30
2019-04-04T01:16:49.366Z,14.37
2019-04-04T01:19:17.431Z,18.70
2019-04-04T01:21:45.278Z,19.20
2019-04-04T01:24:13.125Z,17.90
2019-04-04T01:26:41.130Z,17.80
2019-04-04T01:29:10.959Z,16.77
2019-04-04T01:31:39.130Z,19.83
2019-04-04T01:34:07.052Z,17.40
2019-04-04T01:36:35.068Z,20.40
2019-04-04T01:39:05.250Z,22.50
2019-04-04T01:41:35.967Z,21.33
2019-04-04T01:44:05.185Z,21.40
2019-04-04T01:46:32.768Z,21.73
2019-04-04T01:49:00.880Z,24.13
2019-04-04T01:51:28.837Z,25.10
2019-04-04T01:53:56.684Z,19.93
2019-04-04T01:56:24.808Z,22.30
2019-04-04T01:58:52.841Z,23.60
2019-04-04T02:01:20.812Z,17.57
2019-04-04T02:03:48.788Z,18.93
2019-04-04T02:06:16.729Z,20.80
2019-04-04T02:08:46.815Z,21.40
2019-04-04T02:11:14.872Z,18.17
2019-04-04T02:13:42.716Z,20.80
2019-04-04T02:16:10.732Z,22.13
2019-04-04T02:18:38.565Z,17.63
2019-04-04T02:21:06.396Z,18.47
2019-04-04T02:23:34.446Z,19.90
2019-04-04T02:26:04.831Z,19.03
2019-04-04T02:28:32.335Z,17.80
2019-04-04T02:31:03.703Z,20.17
2019-04-04T02:33:33.286Z,20.57
2019-04-04T02:36:01.371Z,17.43
2019-04-04T02:38:29.434Z,16.53
2019-04-04T02:41:01.565Z,15.10
2019-04-04T02:43:30.687Z,18.20
2019-04-04T02:45:58.798Z,19.43
2019-04-04T02:48:27.853Z,18.17
2019-04-04T02:50:56.785Z,23.73
2019-04-04T02:53:24.754Z,16.50
2019-04-04T02:55:52.602Z,16.97
2019-04-04T02:58:20.435Z,16.20
2019-04-04T03:00:48.479Z,17.43
2019-04-04T03:03:16.634Z,17.17
2019-04-04T03:05:44.489Z,16.30
2019-04-04T03:08:12.728Z,17.07
2019-04-04T03:10:40.900Z,16.50
2019-04-04T03:13:08.759Z,15.70
2019-04-04T03:15:36.603Z,13.53
2019-04-04T03:18:05.558Z,13.30
2019-04-04T03:20:33.570Z,14.60
2019-04-04T03:23:01.632Z,13.93
2019-04-04T03:25:29.753Z,13.53
2019-04-04T03:27:59.492Z,14.40
2019-04-04T03:30:28.748Z,16.83
2019-04-04T03:32:56.598Z,14.87
2019-04-04T03:35:27.710Z,14.50
2019-04-04T03:37:54.427Z,15.87
2019-04-04T03:40:24.924Z,15.40
2019-04-04T03:42:52.022Z,16.50
2019-04-04T03:45:20.005Z,13.30
2019-04-04T03:47:47.889Z,14.03
2019-04-04T03:50:15.702Z,14.80
2019-04-04T03:52:44.669Z,15.43
2019-04-04T03:55:12.692Z,16.47
2019-04-04T03:57:40.523Z,14.60
2019-04-04T04:00:10.587Z,14.40
2019-04-04T04:02:38.440Z,14.13
2019-04-04T04:05:24.666Z,14.27
2019-04-04T04:07:53.164Z,14.73
2019-04-04T04:10:21.021Z,14.17
2019-04-04T04:12:48.899Z,14.27
2019-04-04T04:15:19.780Z,14.70
2019-04-04T04:17:47.655Z,16.53
2019-04-04T04:20:15.667Z,18.90
2019-04-04T04:22:43.839Z,14.70
2019-04-04T04:25:11.920Z,17.73
2019-04-04T04:27:39.881Z,16.00
2019-04-04T04:30:08.219Z,16.20
2019-04-04T04:32:37.319Z,16.93
2019-04-04T04:35:08.630Z,20.90
2019-04-04T04:37:35.839Z,16.10
2019-04-04T04:40:04.009Z,18.30
2019-04-04T04:42:31.853Z,14.10
2019-04-04T04:44:59.798Z,16.70
2019-04-04T04:47:27.684Z,15.60
2019-04-04T04:49:55.717Z,18.23
2019-04-04T04:52:24.039Z,17.10
2019-04-04T04:54:52.331Z,15.83
2019-04-04T04:57:29.326Z,16.03
2019-04-04T04:59:51.841Z,19.60
2019-04-04T05:02:22.019Z,15.60
2019-04-04T05:04:49.446Z,17.13
2019-04-04T05:07:17.497Z,16.70
2019-04-04T05:09:45.366Z,17.90
2019-04-04T05:12:15.022Z,16.27
2019-04-04T05:14:43.068Z,17.07
2019-04-04T05:17:11.004Z,16.07
2019-04-04T05:19:41.622Z,16.23
2019-04-04T05:22:09.822Z,16.80
2019-04-04T05:24:38.197Z,14.10
2019-04-04T05:27:06.781Z,14.53
2019-04-04T05:29:35.023Z,15.67
2019-04-04T05:32:03.182Z,13.50
2019-04-04T05:34:31.040Z,14.37
2019-04-04T05:36:58.881Z,13.90
2019-04-04T05:39:26.883Z,13.90
2019-04-04T05:41:54.885Z,13.20
2019-04-04T05:44:22.842Z,13.60
2019-04-04T05:46:52.021Z,14.13
2019-04-04T05:49:20.214Z,13.07
2019-04-04T05:51:51.701Z,13.50
2019-04-04T05:54:19.584Z,15.43
2019-04-04T05:56:49.060Z,13.70
2019-04-04T05:59:17.472Z,16.17
2019-04-04T06:01:45.499Z,16.30
2019-04-04T06:04:13.354Z,16.27
2019-04-04T06:06:41.172Z,13.90
2019-04-04T06:09:09.321Z,19.70
2019-04-04T06:11:37.162Z,15.20
2019-04-04T06:14:05.107Z,16.87
2019-04-04T06:16:34.756Z,18.03
2019-04-04T06:19:02.674Z,14.63
2019-04-04T06:21:30.727Z,16.83
2019-04-04T06:23:59.678Z,15.53
2019-04-04T06:26:27.579Z,15.10
2019-04-04T06:28:55.573Z,14.63
2019-04-04T06:31:26.178Z,14.37
2019-04-04T06:33:53.213Z,17.53
2019-04-04T06:36:21.327Z,13.23
2019-04-04T06:38:49.964Z,14.23
2019-04-04T06:41:18.101Z,14.40
2019-04-04T06:43:46.066Z,12.80
2019-04-04T06:46:13.911Z,13.17
2019-04-04T06:48:41.916Z,14.37
2019-04-04T06:51:09.747Z,14.13
2019-04-04T06:53:37.580Z,12.27
2019-04-04T06:56:05.629Z,12.90
2019-04-04T06:58:33.488Z,11.97
2019-04-04T07:01:01.469Z,13.00
2019-04-04T07:03:29.300Z,14.40
2019-04-04T07:05:57.139Z,14.73
2019-04-04T07:08:25.191Z,13.17
2019-04-04T07:10:58.049Z,13.80
2019-04-04T07:13:27.202Z,14.10
2019-04-04T07:16:06.310Z,13.43
2019-04-04T07:18:22.485Z,14.20
2019-04-04T07:20:50.584Z,17.57
2019-04-04T07:23:18.427Z,22.57
2019-04-04T07:25:47.245Z,22.63
2019-04-04T07:28:16.900Z,18.20
2019-04-04T07:30:45.231Z,14.50
2019-04-04T07:33:13.068Z,15.27
2019-04-04T07:35:41.084Z,13.30
2019-04-04T07:38:09.036Z,16.30
2019-04-04T07:40:56.468Z,16.23
2019-04-04T07:43:24.383Z,14.77
2019-04-04T07:45:55.113Z,14.50
2019-04-04T07:48:22.135Z,15.70
2019-04-04T07:50:51.412Z,15.57
2019-04-04T07:53:19.539Z,16.13
2019-04-04T07:55:47.597Z,20.30
2019-04-04T07:58:15.705Z,14.47
2019-04-04T08:00:43.850Z,14.73
2019-04-04T08:03:11.821Z,14.90
2019-04-04T08:05:39.660Z,16.87
2019-04-04T08:08:07.527Z,15.33
2019-04-04T08:10:35.605Z,14.47
2019-04-04T08:13:03.638Z,13.33
2019-04-04T08:15:31.687Z,14.67
2019-04-04T08:17:59.547Z,15.17
2019-04-04T08:20:28.870Z,13.83
2019-04-04T08:22:56.835Z,13.07
2019-04-04T08:25:24.678Z,12.50
2019-04-04T08:27:56.484Z,12.00
2019-04-04T08:30:24.640Z,14.53
2019-04-04T08:32:52.710Z,13.90
2019-04-04T08:35:20.589Z,13.27
2019-04-04T08:37:48.567Z,12.57
2019-04-04T08:40:16.401Z,13.50
2019-04-04T08:42:44.230Z,12.80
2019-04-04T08:45:12.381Z,13.03
2019-04-04T08:47:40.207Z,13.63
2019-04-04T08:50:08.426Z,15.67
2019-04-04T08:52:36.505Z,11.20
2019-04-04T08:55:05.199Z,12.17
2019-04-04T08:57:33.021Z,12.30
2019-04-04T09:00:01.144Z,12.23
2019-04-04T09:02:28.954Z,13.07
2019-04-04T09:04:56.776Z,11.90
2019-04-04T09:07:24.768Z,12.90
2019-04-04T09:09:52.697Z,14.50
2019-04-04T09:12:20.756Z,12.50
2019-04-04T09:14:48.780Z,12.07
2019-04-04T09:17:16.761Z,12.23
2019-04-04T09:19:44.558Z,12.20
2019-04-04T09:22:12.365Z,11.10
2019-04-04T09:24:40.366Z,11.97
2019-04-04T09:27:08.188Z,11.50
2019-04-04T09:29:36.210Z,11.43
2019-04-04T09:32:04.195Z,11.37
2019-04-04T09:34:31.997Z,10.20
2019-04-04T09:36:59.968Z,9.87
2019-04-04T09:39:27.902Z,9.17
2019-04-04T09:41:55.724Z,8.87
2019-04-04T09:44:23.745Z,9.33
2019-04-04T09:47:04.593Z,9.97
2019-04-04T09:49:21.445Z,10.10
2019-04-04T09:51:49.296Z,9.97
2019-04-04T09:54:19.355Z,10.63
2019-04-04T09:56:48.941Z,8.60
2019-04-04T09:59:17.013Z,10.03
2019-04-04T10:01:44.835Z,8.43
2019-04-04T10:04:14.084Z,8.53
2019-04-04T10:06:42.069Z,9.67
2019-04-04T10:09:15.988Z,8.73
2019-04-04T10:11:39.860Z,8.03
2019-04-04T10:14:07.823Z,8.00
2019-04-04T10:16:35.645Z,8.47
2019-04-04T10:19:03.469Z,9.03
2019-04-04T10:21:31.473Z,8.33
2019-04-04T10:23:59.504Z,7.80
2019-04-04T10:26:27.563Z,8.20
2019-04-04T10:28:55.558Z,8.10
2019-04-04T10:31:23.556Z,9.30
2019-04-04T10:33:52.485Z,7.47
2019-04-04T10:36:20.614Z,8.20
2019-04-04T10:38:48.454Z,6.73
2019-04-04T10:41:16.277Z,7.60
2019-04-04T10:43:44.244Z,7.63
2019-04-04T10:46:12.071Z,7.20
2019-04-04T10:48:39.894Z,7.40
2019-04-04T10:51:08.272Z,7.23
2019-04-04T10:53:36.078Z,7.13
2019-04-04T10:56:04.305Z,7.60
2019-04-04T10:58:32.118Z,8.20
2019-04-04T11:01:00.145Z,8.33
2019-04-04T11:03:28.227Z,8.10
2019-04-04T11:05:56.918Z,7.23
2019-04-04T11:08:24.991Z,7.80
2019-04-04T11:10:52.962Z,6.97
2019-04-04T11:13:33.005Z,7.07
2019-04-04T11:15:50.750Z,7.43
2019-04-04T11:18:18.587Z,7.73
2019-04-04T11:20:46.611Z,6.63
2019-04-04T11:23:14.928Z,6.93
2019-04-04T11:25:42.743Z,7.63
2019-04-04T11:28:10.569Z,8.00
2019-04-04T11:30:38.604Z,7.47
2019-04-04T11:33:06.445Z,6.90
2019-04-04T11:35:34.378Z,7.50
2019-04-04T11:38:02.430Z,7.40
2019-04-04T11:40:31.333Z,6.37
2019-04-04T11:42:59.411Z,6.40
2019-04-04T11:45:27.252Z,6.33
2019-04-04T11:47:55.312Z,6.97
2019-04-04T11:50:23.302Z,6.70
2019-04-04T11:52:51.202Z,6.17
2019-04-04T11:55:19.252Z,6.30
2019-04-04T11:57:47.089Z,5.83
2019-04-04T12:00:21.012Z,5.43
2019-04-04T12:02:49.110Z,5.90
2019-04-04T12:05:16.942Z,6.67
2019-04-04T12:07:44.844Z,7.63
2019-04-04T12:10:13.316Z,6.17
2019-04-04T12:12:41.190Z,6.40
2019-04-04T12:15:09.533Z,6.20
2019-04-04T12:17:37.478Z,6.97
2019-04-04T12:20:06.716Z,6.00
2019-04-04T12:22:34.747Z,5.77
2019-04-04T12:25:02.785Z,5.70
2019-04-04T12:27:30.716Z,6.20
2019-04-04T12:29:58.666Z,7.20
2019-04-04T12:32:26.487Z,6.10
2019-04-04T12:34:54.526Z,4.93
2019-04-04T12:37:22.638Z,4.97
2019-04-04T12:39:51.633Z,4.80
2019-04-04T12:42:20.137Z,5.13
2019-04-04T12:44:48.271Z,5.13
2019-04-04T12:47:16.092Z,5.60
2019-04-04T12:49:44.121Z,5.43
2019-04-04T12:52:11.991Z,5.30
2019-04-04T12:54:40.066Z,5.30
2019-04-04T12:57:07.902Z,5.67
2019-04-04T12:59:35.731Z,5.73
2019-04-04T13:02:03.754Z,4.93
2019-04-04T13:04:32.295Z,7.43
2019-04-04T13:07:00.419Z,5.07
2019-04-04T13:09:28.597Z,5.57
2019-04-04T13:11:56.585Z,5.77
2019-04-04T13:14:24.448Z,4.80
2019-04-04T13:16:52.354Z,6.50
2019-04-04T13:19:20.392Z,5.63
2019-04-04T13:21:48.589Z,5.97
2019-04-04T13:24:17.571Z,5.50
2019-04-04T13:26:45.644Z,5.47
2019-04-04T13:29:13.632Z,5.20
2019-04-04T13:31:41.467Z,5.03
2019-04-04T13:34:09.440Z,5.20
2019-04-04T13:36:37.270Z,6.30
2019-04-04T13:39:09.507Z,5.70
2019-04-04T13:41:42.518Z,6.87
2019-04-04T13:44:10.433Z,4.93
2019-04-04T13:46:38.261Z,5.70
2019-04-04T13:49:07.965Z,5.60
2019-04-04T13:51:35.940Z,5.90
2019-04-04T13:54:03.939Z,7.23
2019-04-04T13:56:31.932Z,5.20
2019-04-04T13:59:02.043Z,4.90
2019-04-04T14:01:31.022Z,4.97
2019-04-04T14:03:58.967Z,7.57
2019-04-04T14:06:26.937Z,4.87
2019-04-04T14:08:54.784Z,5.00
2019-04-04T14:11:22.627Z,3.93
2019-04-04T14:13:52.573Z,6.80
2019-04-04T14:16:21.184Z,5.27
2019-04-04T14:18:49.038Z,5.23
2019-04-04T14:21:16.893Z,3.70
2019-04-04T14:23:45.388Z,4.10
2019-04-04T14:26:13.796Z,5.37
2019-04-04T14:28:41.658Z,5.13
2019-04-04T14:31:09.523Z,5.00
2019-04-04T14:33:37.628Z,3.60
2019-04-04T14:36:07.427Z,4.20
2019-04-04T14:38:35.321Z,4.67
2019-04-04T14:41:11.007Z,4.83
2019-04-04T14:43:33.294Z,5.40
2019-04-04T14:46:01.233Z,5.90
2019-04-04T14:48:29.539Z,4.70
2019-04-04T14:50:57.555Z,4.03
2019-04-04T14:53:26.251Z,4.90
2019-04-04T14:55:54.700Z,4.80
2019-04-04T14:58:22.771Z,5.77
2019-04-04T15:00:50.697Z,5.13
2019-04-04T15:03:18.742Z,5.50
2019-04-04T15:05:46.732Z,5.30
2019-04-04T15:08:14.738Z,5.60
2019-04-04T15:10:42.705Z,6.00
2019-04-04T15:13:10.731Z,6.97
2019-04-04T15:16:02.894Z,7.20
2019-04-04T15:18:30.925Z,7.13
2019-04-04T15:20:58.782Z,8.40
2019-04-04T15:23:26.805Z,7.80
2019-04-04T15:25:54.771Z,7.93
2019-04-04T15:28:22.576Z,6.87
2019-04-04T15:30:51.735Z,6.10
2019-04-04T15:33:19.573Z,6.53
2019-04-04T15:35:49.057Z,6.40
2019-04-04T15:38:17.049Z,5.50
2019-04-04T15:40:44.988Z,6.20
2019-04-04T15:43:13.115Z,6.30
2019-04-04T15:45:43.821Z,5.83
2019-04-04T15:48:11.891Z,6.37
2019-04-04T15:50:42.873Z,6.30
2019-04-04T15:53:10.734Z,6.63
2019-04-04T15:55:41.652Z,5.70
2019-04-04T15:58:09.669Z,6.47
2019-04-04T16:00:37.539Z,5.87
2019-04-04T16:03:05.558Z,5.30
2019-04-04T16:05:33.393Z,5.07
2019-04-04T16:08:01.352Z,5.70
2019-04-04T16:10:29.749Z,7.73
2019-04-04T16:12:57.630Z,6.47
2019-04-04T16:15:25.503Z,5.17
2019-04-04T16:17:54.039Z,5.67
2019-04-04T16:20:22.076Z,5.10
2019-04-04T16:22:49.901Z,4.83
2019-04-04T16:25:18.365Z,5.13
2019-04-04T16:27:46.359Z,4.53
2019-04-04T16:30:14.312Z,4.60
2019-04-04T16:32:42.307Z,5.27
2019-04-04T16:35:10.287Z,5.70
2019-04-04T16:37:38.223Z,5.37
2019-04-04T16:40:09.220Z,5.53
2019-04-04T16:42:37.076Z,4.77
2019-04-04T16:45:07.581Z,5.87
2019-04-04T16:47:35.602Z,5.43
2019-04-04T16:50:04.160Z,4.90
2019-04-04T16:52:32.167Z,4.53
2019-04-04T16:55:04.735Z,4.60
2019-04-04T16:57:32.892Z,4.70
2019-04-04T17:00:00.901Z,4.67
2019-04-04T17:02:28.751Z,4.80
2019-04-04T17:04:56.772Z,4.43
2019-04-04T17:07:24.588Z,4.43
2019-04-04T17:09:52.565Z,4.00
2019-04-04T17:12:20.426Z,4.60
2019-04-04T17:14:48.409Z,4.03
2019-04-04T17:17:16.239Z,5.30
2019-04-04T17:19:44.349Z,4.07
2019-04-04T17:22:12.320Z,4.57
2019-04-04T17:24:40.216Z,5.40
2019-04-04T17:27:08.279Z,5.10
2019-04-04T17:29:37.926Z,5.07
2019-04-04T17:32:05.796Z,5.30
2019-04-04T17:34:34.069Z,5.27
2019-04-04T17:37:02.426Z,6.53
2019-04-04T17:39:30.522Z,7.53
2019-04-04T17:41:58.492Z,7.90
2019-04-04T17:44:26.601Z,9.20
2019-04-04T17:46:54.971Z,10.20
2019-04-04T17:49:22.985Z,10.60
2019-04-04T17:51:52.565Z,11.70
2019-04-04T17:54:20.994Z,11.80
2019-04-04T17:56:49.127Z,13.37
2019-04-04T17:59:17.013Z,15.40
2019-04-04T18:01:45.020Z,13.77
2019-04-04T18:04:12.872Z,14.40
2019-04-04T18:06:40.985Z,15.90
2019-04-04T18:09:08.942Z,15.53
2019-04-04T18:11:38.229Z,15.40
2019-04-04T18:14:06.175Z,15.50
2019-04-04T18:16:34.222Z,17.10
2019-04-04T18:19:02.098Z,18.17
2019-04-04T18:21:30.143Z,17.50
2019-04-04T18:23:58.133Z,18.37
2019-04-04T18:26:26.144Z,18.10
2019-04-04T18:28:54.172Z,19.37
2019-04-04T18:31:22.037Z,19.47
2019-04-04T18:33:50.428Z,20.70
2019-04-04T18:36:18.448Z,20.87
2019-04-04T18:38:46.376Z,22.93
2019-04-04T18:41:14.343Z,21.43
2019-04-04T18:43:42.166Z,21.17
2019-04-04T18:46:10.402Z,20.43
2019-04-04T18:48:38.492Z,22.20
2019-04-04T18:51:06.457Z,21.70
2019-04-04T18:53:34.959Z,21.93
2019-04-04T18:56:03.070Z,22.83
2019-04-04T18:58:30.899Z,22.10
2019-04-04T19:00:58.982Z,22.50
2019-04-04T19:03:29.593Z,22.77
2019-04-04T19:05:56.904Z,22.53
2019-04-04T19:08:25.063Z,25.40
2019-04-04T19:10:52.891Z,24.93
2019-04-04T19:13:21.075Z,25.97
2019-04-04T19:15:49.461Z,25.53
2019-04-04T19:18:19.365Z,28.97
2019-04-04T19:20:47.324Z,28.50
2019-04-04T19:23:15.426Z,27.50
2019-04-04T19:25:43.345Z,28.40
2019-04-04T19:28:11.390Z,29.10
2019-04-04T19:30:39.360Z,28.57
2019-04-04T19:33:07.349Z,30.90
2019-04-04T19:35:36.636Z,32.33
2019-04-04T19:38:04.723Z,30.70
2019-04-04T19:40:32.660Z,33.30
2019-04-04T19:43:01.972Z,33.47
2019-04-04T19:45:29.793Z,36.43
2019-04-04T19:47:57.635Z,32.80
2019-04-04T19:50:25.646Z,31.97
2019-04-04T19:52:55.172Z,36.47
2019-04-04T19:55:23.346Z,35.07
2019-04-04T19:57:51.458Z,37.90
2019-04-04T20:00:19.684Z,38.23
2019-04-04T20:02:47.733Z,38.07
2019-04-04T20:05:15.812Z,36.90
2019-04-04T20:07:43.616Z,37.53
2019-04-04T20:10:11.786Z,39.13
2019-04-04T20:12:41.592Z,41.27
2019-04-04T20:15:09.561Z,39.83
2019-04-04T20:17:37.619Z,39.37
2019-04-04T20:20:07.633Z,41.30
2019-04-04T20:22:35.567Z,39.27
2019-04-04T20:25:03.706Z,42.07
2019-04-04T20:27:31.584Z,43.97
2019-04-04T20:29:59.843Z,40.07
2019-04-04T20:32:27.763Z,43.03
2019-04-04T20:34:55.693Z,41.37
2019-04-04T20:37:23.534Z,42.23
2019-04-04T20:39:51.734Z,40.77
2019-04-04T20:42:19.607Z,41.10
2019-04-04T20:44:47.529Z,43.73
2019-04-04T20:47:15.531Z,40.17
2019-04-04T20:49:43.371Z,44.07
2019-04-04T20:52:11.402Z,42.00
2019-04-04T20:54:40.468Z,41.30
2019-04-04T20:57:08.547Z,44.53
2019-04-04T20:59:36.517Z,43.70
2019-04-04T21:02:04.361Z,42.17
2019-04-04T21:04:32.382Z,43.90
2019-04-04T21:07:00.275Z,41.13
2019-04-04T21:09:28.148Z,45.13
2019-04-04T21:11:56.096Z,41.83
2019-04-04T21:14:26.162Z,45.10
2019-04-04T21:16:54.177Z,42.77
2019-04-04T21:19:23.560Z,46.33
2019-04-04T21:21:51.390Z,45.10
2019-04-04T21:24:19.433Z,42.90
2019-04-04T21:26:47.415Z,42.17
2019-04-04T21:29:15.274Z,45.50
2019-04-04T21:31:43.097Z,41.83
2019-04-04T21:34:11.123Z,40.50
2019-04-04T21:36:38.994Z,46.70
2019-04-04T21:39:07.549Z,45.00
2019-04-04T21:41:35.960Z,46.43
2019-04-04T21:44:09.103Z,45.20
2019-04-04T21:46:33.617Z,46.07
2019-04-04T21:49:01.633Z,41.93
2019-04-04T21:51:29.475Z,45.57
2019-04-04T21:53:57.481Z,46.23
2019-04-04T21:56:25.454Z,43.90
2019-04-04T21:58:55.110Z,43.63
2019-04-04T22:01:22.920Z,43.63
2019-04-04T22:03:50.894Z,43.23
2019-04-04T22:06:19.083Z,46.17
2019-04-04T22:08:47.004Z,51.07
2019-04-04T22:11:14.860Z,50.30
2019-04-04T22:13:42.799Z,49.70
2019-04-04T22:16:10.719Z,45.17
2019-04-04T22:18:38.843Z,46.50
2019-04-04T22:21:06.795Z,49.13
2019-04-04T22:23:34.615Z,49.57
2019-04-04T22:26:02.661Z,44.57
2019-04-04T22:28:30.478Z,52.40
2019-04-04T22:30:58.299Z,49.00
2019-04-04T22:33:26.226Z,47.50
2019-04-04T22:35:54.053Z,51.23
2019-04-04T22:38:21.874Z,51.60
2019-04-04T22:40:49.909Z,50.40
2019-04-04T22:43:17.727Z,47.90
2019-04-04T22:45:45.744Z,50.87
2019-04-04T22:48:13.656Z,52.07
2019-04-04T22:50:41.680Z,52.10
2019-04-04T22:53:11.311Z,53.07
2019-04-04T22:55:39.269Z,49.43
2019-04-04T22:58:07.241Z,51.63
2019-04-04T23:00:35.061Z,51.00
2019-04-04T23:03:04.828Z,50.40
2019-04-04T23:05:32.805Z,53.80
2019-04-04T23:08:00.945Z,60.70
2019-04-04T23:10:29.208Z,63.67
2019-04-04T23:12:57.009Z,62.77
2019-04-04T23:15:25.003Z,57.83
2019-04-04T23:17:52.824Z,54.40
2019-04-04T23:20:20.851Z,54.73
2019-04-04T23:22:52.895Z,59.43
2019-04-04T23:25:18.534Z,54.70
2019-04-04T23:27:46.516Z,57.17
2019-04-04T23:30:14.560Z,56.43
2019-04-04T23:32:42.560Z,55.07
2019-04-04T23:35:10.641Z,54.17
2019-04-04T23:37:38.616Z,51.57
2019-04-04T23:40:06.654Z,53.40
2019-04-04T23:42:34.662Z,56.47
2019-04-04T23:45:05.952Z,54.40
2019-04-04T23:47:42.593Z,53.23
2019-04-04T23:50:04.659Z,58.70
2019-04-04T23:52:32.694Z,53.83
2019-04-04T23:55:00.510Z,62.17
2019-04-04T23:57:28.544Z,55.50
2019-04-04T23:59:56.460Z,58.47
